Tukwila, Washington
Current Conditions -  °F | °C
As of 3:53 PM on Thursday 18 Dec 2014 (Local Time) from KSEA Reporting Station
Light Rain Light Rain  
Wind Chill: 44°   Ceiling: 4400
Heat Index: 48°   Visibility: 5mi
Dew Point: 44°   Wind: 9mph
Humidity: 86%   Direction: 130°SE
Pressure: 29.81"   Gusts: NA
Location:  47.46°N, 122.25°W
Report Text: KSEA 182353Z 13008KT 5SM -RA BR FEW034 BKN044 OVC065 09/07 A2981 RMK AO2 SLP101 P0003 60006 T00890067 10094 20078 58012
Loading
Personal Weather Stations






























Interactive Weather Map New forecast layout! Learn more

10-Day Weather Forecast

Advertisements
Track Severe Weather on mobile